createdAt,value
2023-02-06T00:01:42.660Z,154.83
2023-02-06T00:04:11.170Z,162.80
2023-02-06T00:06:41.485Z,155.93
2023-02-06T00:09:10.504Z,146.07
2023-02-06T00:11:39.325Z,131.43
2023-02-06T00:14:08.002Z,129.17
2023-02-06T00:16:36.946Z,122.30
2023-02-06T00:19:05.729Z,146.00
2023-02-06T00:21:34.675Z,140.47
2023-02-06T00:24:04.954Z,138.40
2023-02-06T00:26:33.818Z,125.10
2023-02-06T00:29:02.338Z,115.33
2023-02-06T00:31:31.079Z,123.33
2023-02-06T00:34:00.021Z,128.83
2023-02-06T00:36:28.699Z,118.47
2023-02-06T00:38:57.055Z,113.57
2023-02-06T00:41:27.239Z,111.87
2023-02-06T00:43:55.594Z,121.40
2023-02-06T00:46:25.714Z,108.80
2023-02-06T00:48:54.107Z,94.70
2023-02-06T00:51:23.023Z,94.97
2023-02-06T00:53:51.522Z,100.80
2023-02-06T00:56:21.297Z,110.17
2023-02-06T00:58:51.077Z,92.60
2023-02-06T01:01:20.006Z,91.17
2023-02-06T01:03:48.501Z,89.73
2023-02-06T01:06:17.194Z,106.23
2023-02-06T01:08:45.923Z,91.93
2023-02-06T01:11:16.595Z,95.73
2023-02-06T01:13:45.336Z,97.33
2023-02-06T01:16:16.966Z,85.80
2023-02-06T01:18:45.504Z,79.33
2023-02-06T01:21:17.406Z,92.03
2023-02-06T01:23:46.228Z,79.83
2023-02-06T01:26:17.345Z,76.93
2023-02-06T01:28:47.577Z,87.83
2023-02-06T01:31:19.463Z,87.83
2023-02-06T01:33:49.414Z,101.03
2023-02-06T01:36:18.824Z,99.57
2023-02-06T01:38:48.103Z,99.57
2023-02-06T01:41:18.890Z,101.17
2023-02-06T01:44:07.473Z,107.00
2023-02-06T01:46:37.684Z,92.30
2023-02-06T01:49:07.462Z,111.37
2023-02-06T01:51:36.397Z,91.30
2023-02-06T01:54:07.730Z,98.73
2023-02-06T01:56:42.633Z,83.03
2023-02-06T01:59:11.170Z,77.20
2023-02-06T02:01:42.661Z,86.30
2023-02-06T02:04:17.090Z,89.20
2023-02-06T02:06:47.816Z,87.83
2023-02-06T02:09:16.803Z,97.00
2023-02-06T02:11:45.737Z,109.30
2023-02-06T02:14:17.290Z,106.60
2023-02-06T02:16:55.802Z,103.10
2023-02-06T02:19:49.163Z,85.07
2023-02-06T02:22:46.855Z,102.03
2023-02-06T02:25:49.242Z,98.17
2023-02-06T02:28:51.344Z,92.80
2023-02-06T02:32:06.006Z,100.10
2023-02-06T02:35:16.991Z,88.87
2023-02-06T02:38:01.104Z,97.13
2023-02-06T02:40:39.507Z,89.67
2023-02-06T02:43:17.706Z,84.53
2023-02-06T02:45:51.745Z,87.13
2023-02-06T02:48:25.394Z,83.83
2023-02-06T02:50:56.180Z,92.03
2023-02-06T02:53:26.545Z,88.93
2023-02-06T02:55:55.948Z,101.10
2023-02-06T02:58:31.254Z,103.60
2023-02-06T03:01:04.268Z,105.13
2023-02-06T03:03:39.744Z,94.67
2023-02-06T03:06:26.475Z,84.77
2023-02-06T03:09:03.538Z,81.37
2023-02-06T03:11:33.539Z,97.30
2023-02-06T03:14:07.019Z,81.33
2023-02-06T03:16:39.940Z,83.33
2023-02-06T03:19:12.844Z,72.70
2023-02-06T03:21:43.665Z,77.17
2023-02-06T03:24:19.279Z,93.87
2023-02-06T03:26:50.412Z,90.47
2023-02-06T03:29:20.036Z,102.50
2023-02-06T03:31:52.909Z,88.00
2023-02-06T03:34:24.443Z,91.40
2023-02-06T03:36:54.131Z,96.40
2023-02-06T03:39:24.671Z,96.60
2023-02-06T03:41:57.374Z,84.33
2023-02-06T03:44:29.975Z,91.43
2023-02-06T03:47:01.016Z,78.53
2023-02-06T03:49:32.874Z,77.07
2023-02-06T03:52:05.958Z,80.03
2023-02-06T03:54:40.414Z,66.63
2023-02-06T03:57:13.530Z,87.30
2023-02-06T03:59:41.982Z,80.23
2023-02-06T04:02:10.771Z,81.37
2023-02-06T04:04:41.576Z,78.23
2023-02-06T04:07:14.566Z,76.70
2023-02-06T04:09:44.373Z,75.33
2023-02-06T04:12:13.506Z,66.40
2023-02-06T04:14:41.908Z,70.17
2023-02-06T04:17:12.356Z,67.73
2023-02-06T04:19:42.088Z,71.67
2023-02-06T04:22:14.057Z,76.43
2023-02-06T04:24:44.487Z,69.53
2023-02-06T04:27:14.745Z,66.40
2023-02-06T04:29:43.227Z,69.17
2023-02-06T04:32:12.472Z,69.77
2023-02-06T04:34:40.934Z,70.40
2023-02-06T04:37:12.282Z,79.80
2023-02-06T04:39:41.168Z,71.80
2023-02-06T04:42:11.217Z,67.77
2023-02-06T04:44:39.589Z,64.10
2023-02-06T04:47:08.672Z,63.50
2023-02-06T04:49:37.040Z,73.93
2023-02-06T04:52:06.027Z,68.13
2023-02-06T04:54:34.417Z,69.60
2023-02-06T04:57:03.116Z,112.30
2023-02-06T04:59:32.990Z,69.87
2023-02-06T05:02:01.774Z,63.13
2023-02-06T05:04:30.307Z,77.10
2023-02-06T05:06:58.911Z,67.60
2023-02-06T05:09:27.332Z,69.40
2023-02-06T05:11:56.039Z,65.83
2023-02-06T05:14:24.869Z,65.10
2023-02-06T05:16:54.940Z,63.07
2023-02-06T05:19:23.404Z,63.90
2023-02-06T05:21:52.120Z,69.27
2023-02-06T05:24:20.444Z,62.27
2023-02-06T05:26:49.196Z,59.23
2023-02-06T05:29:17.548Z,73.03
2023-02-06T05:31:46.245Z,59.30
2023-02-06T05:34:15.978Z,62.00
2023-02-06T05:36:44.873Z,66.50
2023-02-06T05:39:13.247Z,66.47
2023-02-06T05:41:41.917Z,63.70
2023-02-06T05:44:10.996Z,64.47
2023-02-06T05:46:39.765Z,62.80
2023-02-06T05:49:08.261Z,64.60
2023-02-06T05:51:38.243Z,60.13
2023-02-06T05:54:06.778Z,64.50
2023-02-06T05:56:35.410Z,61.00
2023-02-06T05:59:03.801Z,67.27
2023-02-06T06:01:33.047Z,63.90
2023-02-06T06:04:01.638Z,73.77
2023-02-06T06:06:30.276Z,72.40
2023-02-06T06:09:01.422Z,69.10
2023-02-06T06:11:30.703Z,65.47
2023-02-06T06:13:59.257Z,63.73
2023-02-06T06:16:28.067Z,86.33
2023-02-06T06:18:56.818Z,58.97
2023-02-06T06:21:25.678Z,58.80
2023-02-06T06:23:54.156Z,64.60
2023-02-06T06:26:24.455Z,55.47
2023-02-06T06:28:52.866Z,61.73
2023-02-06T06:31:21.713Z,74.37
2023-02-06T06:33:50.212Z,57.63
2023-02-06T06:36:19.104Z,58.90
2023-02-06T06:38:47.614Z,68.40
2023-02-06T06:41:16.964Z,70.33
2023-02-06T06:43:46.666Z,62.97
2023-02-06T06:46:15.721Z,79.80
2023-02-06T06:48:44.049Z,70.20
2023-02-06T06:51:12.700Z,66.30
2023-02-06T06:53:41.024Z,75.53
2023-02-06T06:56:13.365Z,72.00
2023-02-06T06:58:42.251Z,67.80
2023-02-06T07:01:12.301Z,79.13
2023-02-06T07:03:44.096Z,70.00
2023-02-06T07:06:13.469Z,65.07
2023-02-06T07:08:42.205Z,76.93
2023-02-06T07:11:11.643Z,56.43
2023-02-06T07:13:40.499Z,55.87
2023-02-06T07:16:11.407Z,64.23
2023-02-06T07:18:41.909Z,61.40
2023-02-06T07:21:11.499Z,63.73
2023-02-06T07:23:40.108Z,61.03
2023-02-06T07:26:09.191Z,60.03
2023-02-06T07:28:38.028Z,63.37
2023-02-06T07:31:09.068Z,64.23
2023-02-06T07:33:38.900Z,64.83
2023-02-06T07:36:12.009Z,69.00
2023-02-06T07:38:40.463Z,67.67
2023-02-06T07:41:11.194Z,74.33
2023-02-06T07:43:41.141Z,69.77
2023-02-06T07:46:09.876Z,61.50
2023-02-06T07:48:39.615Z,58.20
2023-02-06T07:51:10.018Z,64.20
2023-02-06T07:53:39.185Z,65.40
2023-02-06T07:56:13.020Z,80.27
2023-02-06T07:58:41.471Z,73.23
2023-02-06T08:01:10.765Z,94.27
2023-02-06T08:03:40.501Z,106.40
2023-02-06T08:06:10.274Z,81.67
2023-02-06T08:08:39.068Z,89.17
2023-02-06T08:11:08.560Z,92.13
2023-02-06T08:13:37.755Z,87.10
2023-02-06T08:16:07.779Z,87.67
2023-02-06T08:18:36.636Z,88.50
2023-02-06T08:21:08.808Z,70.90
2023-02-06T08:23:37.239Z,65.93
2023-02-06T08:26:07.797Z,69.40
2023-02-06T08:28:37.037Z,73.07
2023-02-06T08:31:11.327Z,72.60
2023-02-06T08:33:40.499Z,73.13
2023-02-06T08:36:11.901Z,67.20
2023-02-06T08:38:40.873Z,67.03
2023-02-06T08:41:18.527Z,70.40
2023-02-06T08:43:47.460Z,64.83
2023-02-06T08:46:17.485Z,63.40
2023-02-06T08:48:46.617Z,63.30
2023-02-06T08:51:16.728Z,65.87
2023-02-06T08:53:45.128Z,60.90
2023-02-06T08:56:14.165Z,60.90
2023-02-06T08:58:42.595Z,61.47
2023-02-06T09:01:14.609Z,50.97
2023-02-06T09:03:43.185Z,52.90
2023-02-06T09:06:13.405Z,56.80
2023-02-06T09:08:43.812Z,52.10
2023-02-06T09:11:15.598Z,52.63
2023-02-06T09:13:45.276Z,54.03
2023-02-06T09:16:14.611Z,48.40
2023-02-06T09:18:43.461Z,57.97
2023-02-06T09:21:14.254Z,56.50
2023-02-06T09:23:45.380Z,56.17
2023-02-06T09:26:15.857Z,61.20
2023-02-06T09:28:44.352Z,67.83
2023-02-06T09:31:13.373Z,59.97
2023-02-06T09:33:41.825Z,60.67
2023-02-06T09:36:12.878Z,59.83
2023-02-06T09:38:51.096Z,56.03
2023-02-06T09:41:24.290Z,70.60
2023-02-06T09:43:55.572Z,58.57
2023-02-06T09:46:29.105Z,67.33
2023-02-06T09:48:59.929Z,69.27
2023-02-06T09:51:40.099Z,67.93
2023-02-06T09:54:19.635Z,65.00
2023-02-06T09:56:54.064Z,59.67
2023-02-06T09:59:29.848Z,58.80
2023-02-06T10:02:13.775Z,59.50
2023-02-06T10:04:50.890Z,64.23
2023-02-06T10:07:27.342Z,54.47
2023-02-06T10:10:02.597Z,54.73
2023-02-06T10:12:37.185Z,57.73
2023-02-06T10:15:12.367Z,54.10
2023-02-06T10:17:50.140Z,55.10
2023-02-06T10:20:23.553Z,64.33
2023-02-06T10:22:58.277Z,55.43
2023-02-06T10:25:32.152Z,44.63
2023-02-06T10:28:03.589Z,60.00
2023-02-06T10:30:44.369Z,61.20
2023-02-06T10:33:25.673Z,51.53
2023-02-06T10:36:04.329Z,60.73
2023-02-06T10:38:59.115Z,41.17
2023-02-06T10:41:38.611Z,49.03
2023-02-06T10:44:19.423Z,44.63
2023-02-06T10:46:51.014Z,51.90
2023-02-06T10:49:30.410Z,45.90
2023-02-06T10:52:01.498Z,47.27
2023-02-06T10:54:34.660Z,51.77
2023-02-06T10:57:12.568Z,47.60
2023-02-06T10:59:45.998Z,39.17
2023-02-06T11:02:21.300Z,45.73
2023-02-06T11:04:56.566Z,43.17
2023-02-06T11:07:29.172Z,37.00
2023-02-06T11:09:58.228Z,42.63
2023-02-06T11:12:33.397Z,35.83
2023-02-06T11:15:08.516Z,40.83
2023-02-06T11:17:37.435Z,64.43
2023-02-06T11:20:20.214Z,34.00
2023-02-06T11:22:53.100Z,43.87
2023-02-06T11:25:33.634Z,33.20
2023-02-06T11:28:03.470Z,40.70
2023-02-06T11:30:35.716Z,39.83
2023-02-06T11:33:08.197Z,39.47
2023-02-06T11:35:41.440Z,40.07
2023-02-06T11:38:16.640Z,37.33
2023-02-06T11:40:54.479Z,40.27
2023-02-06T11:43:26.202Z,44.80
2023-02-06T11:46:09.635Z,50.43
2023-02-06T11:48:40.623Z,41.77
2023-02-06T11:51:11.783Z,26.27
2023-02-06T11:53:40.985Z,46.10
2023-02-06T11:56:18.740Z,41.30
2023-02-06T11:59:01.620Z,47.47
2023-02-06T12:01:38.235Z,47.27
2023-02-06T12:04:12.064Z,36.87
2023-02-06T12:06:41.937Z,36.90
2023-02-06T12:09:13.131Z,44.00
2023-02-06T12:11:50.626Z,37.53
2023-02-06T12:14:25.850Z,48.83
2023-02-06T12:16:55.296Z,44.27
2023-02-06T12:19:31.668Z,36.23
2023-02-06T12:22:03.880Z,37.33
2023-02-06T12:24:35.131Z,42.47
2023-02-06T12:27:20.726Z,42.30
2023-02-06T12:29:58.612Z,33.23
2023-02-06T12:32:33.004Z,38.13
2023-02-06T12:35:14.475Z,33.90
2023-02-06T12:37:49.008Z,40.33
2023-02-06T12:40:30.215Z,36.30
2023-02-06T12:43:04.057Z,43.23
2023-02-06T12:45:44.778Z,35.30
2023-02-06T12:48:19.408Z,36.43
2023-02-06T12:51:05.456Z,40.53
2023-02-06T12:53:39.835Z,39.60
2023-02-06T12:56:26.046Z,44.00
2023-02-06T12:59:03.468Z,37.10
2023-02-06T13:01:48.855Z,36.73
2023-02-06T13:04:20.691Z,36.13
2023-02-06T13:06:54.519Z,37.87
2023-02-06T13:09:29.980Z,34.07
2023-02-06T13:12:13.536Z,38.17
2023-02-06T13:14:47.779Z,36.97
2023-02-06T13:17:21.778Z,35.77
2023-02-06T13:20:05.536Z,29.97
2023-02-06T13:22:45.928Z,45.37
2023-02-06T13:25:54.283Z,36.83
2023-02-06T13:28:47.216Z,39.43
2023-02-06T13:31:27.867Z,43.43
2023-02-06T13:34:01.534Z,46.83
2023-02-06T13:36:51.964Z,50.90
2023-02-06T13:39:26.822Z,37.80
2023-02-06T13:41:55.608Z,43.37
2023-02-06T13:44:29.211Z,40.40
2023-02-06T13:47:35.328Z,35.07
2023-02-06T13:50:34.075Z,36.93
2023-02-06T13:53:36.759Z,38.57
2023-02-06T13:56:15.745Z,45.63
2023-02-06T13:58:49.404Z,38.87
2023-02-06T14:01:22.891Z,37.80
2023-02-06T14:03:53.800Z,40.53
2023-02-06T14:06:41.251Z,36.47
2023-02-06T14:09:30.416Z,42.40
2023-02-06T14:12:28.686Z,37.07
2023-02-06T14:15:14.700Z,38.57
2023-02-06T14:17:57.289Z,35.70
2023-02-06T14:20:35.341Z,36.33
2023-02-06T14:23:17.344Z,45.97
2023-02-06T14:26:00.420Z,44.73
2023-02-06T14:28:38.812Z,30.33
2023-02-06T14:31:20.088Z,31.43
2023-02-06T14:34:01.671Z,31.73
2023-02-06T14:36:59.824Z,32.57
2023-02-06T14:39:45.256Z,37.40
2023-02-06T14:42:18.200Z,40.80
2023-02-06T14:44:51.225Z,35.47
2023-02-06T14:47:23.012Z,37.80
2023-02-06T14:49:52.853Z,36.27
2023-02-06T14:52:24.875Z,38.27
2023-02-06T14:54:54.867Z,39.50
2023-02-06T14:57:26.179Z,34.97
2023-02-06T14:59:58.285Z,35.37
2023-02-06T15:02:30.295Z,33.40
2023-02-06T15:05:00.194Z,33.50
2023-02-06T15:07:31.674Z,38.07
2023-02-06T15:10:06.801Z,32.43
2023-02-06T15:12:36.254Z,36.20
2023-02-06T15:15:17.682Z,33.07
2023-02-06T15:17:57.393Z,46.00
2023-02-06T15:20:32.308Z,37.33
2023-02-06T15:23:18.150Z,35.93
2023-02-06T15:26:01.264Z,34.43
2023-02-06T15:28:32.650Z,50.10
2023-02-06T15:31:02.847Z,39.97
2023-02-06T15:33:33.304Z,37.20
2023-02-06T15:36:03.968Z,32.77
2023-02-06T15:38:34.715Z,48.93
2023-02-06T15:41:07.501Z,43.47
2023-02-06T15:43:36.993Z,52.93
2023-02-06T15:46:07.226Z,47.57
2023-02-06T15:48:39.266Z,46.50
2023-02-06T15:51:23.671Z,54.50
2023-02-06T15:53:54.272Z,37.90
2023-02-06T15:56:27.184Z,49.83
2023-02-06T15:58:59.298Z,43.80
2023-02-06T16:01:30.989Z,41.67
2023-02-06T16:04:04.742Z,53.10
2023-02-06T16:06:33.229Z,46.40
2023-02-06T16:09:06.321Z,46.23
2023-02-06T16:11:47.393Z,51.37
2023-02-06T16:14:22.258Z,44.53
2023-02-06T16:16:59.162Z,47.50
2023-02-06T16:19:37.174Z,47.30
2023-02-06T16:22:14.959Z,42.47
2023-02-06T16:24:43.663Z,48.57
2023-02-06T16:27:22.112Z,51.07
2023-02-06T16:29:53.298Z,51.47
2023-02-06T16:32:25.675Z,45.67
2023-02-06T16:34:55.488Z,49.20
2023-02-06T16:37:25.883Z,47.30
2023-02-06T16:39:55.748Z,46.80
2023-02-06T16:42:27.518Z,62.10
2023-02-06T16:45:01.076Z,43.47
2023-02-06T16:47:29.632Z,50.50
2023-02-06T16:49:58.295Z,64.60
2023-02-06T16:52:29.918Z,44.00
2023-02-06T16:54:59.741Z,45.77
2023-02-06T16:57:32.031Z,58.17
2023-02-06T17:00:00.874Z,45.87
2023-02-06T17:02:29.667Z,45.93
2023-02-06T17:04:58.477Z,51.00
2023-02-06T17:07:30.284Z,45.40
2023-02-06T17:10:00.100Z,49.67
2023-02-06T17:12:30.380Z,51.77
2023-02-06T17:14:59.369Z,50.13
2023-02-06T17:17:28.364Z,47.43
2023-02-06T17:19:57.348Z,78.77
2023-02-06T17:22:25.804Z,51.30
2023-02-06T17:24:54.508Z,59.93
2023-02-06T17:27:23.740Z,70.33
2023-02-06T17:29:53.863Z,57.87
2023-02-06T17:32:22.971Z,56.77
2023-02-06T17:34:54.203Z,61.63
2023-02-06T17:37:22.773Z,55.03
2023-02-06T17:39:52.642Z,56.77
2023-02-06T17:42:23.192Z,62.10
2023-02-06T17:44:53.293Z,49.47
2023-02-06T17:47:21.858Z,56.53
2023-02-06T17:49:50.780Z,64.27
2023-02-06T17:52:19.721Z,51.37
2023-02-06T17:54:48.473Z,77.70
2023-02-06T17:57:16.883Z,68.63
2023-02-06T17:59:45.588Z,82.20
2023-02-06T18:02:15.440Z,123.93
2023-02-06T18:04:44.200Z,121.43
2023-02-06T18:07:12.663Z,126.43
2023-02-06T18:09:42.403Z,134.87
2023-02-06T18:12:11.156Z,155.67
2023-02-06T18:14:40.657Z,117.97
2023-02-06T18:17:09.875Z,110.20
2023-02-06T18:19:42.737Z,118.70
2023-02-06T18:22:13.640Z,148.07
2023-02-06T18:24:42.972Z,149.77
2023-02-06T18:27:12.043Z,154.30
2023-02-06T18:29:49.359Z,149.37
2023-02-06T18:32:19.153Z,137.57
2023-02-06T18:34:49.535Z,144.07
2023-02-06T18:37:17.987Z,144.83
2023-02-06T18:39:46.947Z,119.50
2023-02-06T18:42:32.884Z,146.03
2023-02-06T18:45:04.037Z,149.10
2023-02-06T18:47:32.921Z,143.97
2023-02-06T18:50:03.158Z,153.87
2023-02-06T18:52:31.673Z,142.47
2023-02-06T18:55:00.463Z,142.47
2023-02-06T18:57:29.045Z,149.97
2023-02-06T18:59:58.833Z,150.67
2023-02-06T19:02:27.412Z,137.23
2023-02-06T19:04:58.604Z,137.43
2023-02-06T19:07:28.843Z,134.43
2023-02-06T19:09:58.962Z,135.47
2023-02-06T19:12:29.187Z,129.53
2023-02-06T19:14:59.582Z,129.03
2023-02-06T19:17:29.084Z,153.10
2023-02-06T19:19:58.402Z,146.57
2023-02-06T19:22:28.455Z,142.83
2023-02-06T19:24:57.380Z,127.17
2023-02-06T19:27:26.299Z,114.87
2023-02-06T19:29:55.161Z,108.73
2023-02-06T19:32:26.040Z,99.07
2023-02-06T19:34:54.761Z,91.07
2023-02-06T19:37:23.257Z,108.50
2023-02-06T19:39:53.393Z,136.87
2023-02-06T19:42:21.901Z,149.73
2023-02-06T19:44:53.950Z,162.93
2023-02-06T19:47:22.590Z,187.83
2023-02-06T19:49:52.841Z,175.73
2023-02-06T19:52:21.600Z,187.73
2023-02-06T19:54:50.288Z,168.40
2023-02-06T19:57:20.113Z,179.97
2023-02-06T19:59:48.961Z,193.60
2023-02-06T20:02:17.522Z,150.73
2023-02-06T20:04:46.461Z,168.57
2023-02-06T20:07:15.041Z,207.20
2023-02-06T20:09:43.837Z,183.43
2023-02-06T20:12:13.085Z,201.63
2023-02-06T20:14:43.928Z,202.70
2023-02-06T20:17:12.321Z,198.70
2023-02-06T20:19:41.093Z,212.63
2023-02-06T20:22:09.770Z,236.17
2023-02-06T20:24:38.752Z,238.83
2023-02-06T20:27:09.017Z,228.40
2023-02-06T20:29:39.534Z,238.27
2023-02-06T20:32:10.951Z,187.03
2023-02-06T20:34:39.831Z,216.73
2023-02-06T20:37:08.325Z,202.20
2023-02-06T20:39:37.025Z,192.33
2023-02-06T20:42:05.761Z,221.07
2023-02-06T20:44:34.690Z,212.10
2023-02-06T20:47:03.133Z,209.67
2023-02-06T20:49:33.573Z,202.03
2023-02-06T20:52:03.299Z,154.23
2023-02-06T20:54:32.160Z,110.37
2023-02-06T20:57:01.283Z,87.07
2023-02-06T20:59:30.550Z,79.27
2023-02-06T21:01:59.215Z,93.60
2023-02-06T21:04:28.054Z,116.07
2023-02-06T21:06:57.869Z,158.23
2023-02-06T21:21:09.334Z,209.10
2023-02-06T21:23:38.884Z,186.53
2023-02-06T21:26:08.624Z,183.00
2023-02-06T21:28:38.220Z,181.17
2023-02-06T21:31:08.789Z,180.90
2023-02-06T21:33:38.571Z,170.43
2023-02-06T21:36:09.318Z,161.80
2023-02-06T21:38:38.838Z,155.33
2023-02-06T21:41:08.258Z,152.93
2023-02-06T21:43:37.119Z,129.07
2023-02-06T21:46:06.279Z,232.20
2023-02-06T21:48:36.506Z,232.97
2023-02-06T21:51:10.624Z,278.83
2023-02-06T21:53:39.894Z,270.10
2023-02-06T21:56:10.376Z,295.13
2023-02-06T21:58:39.112Z,299.43
2023-02-06T22:01:09.035Z,272.43
2023-02-06T22:03:37.846Z,280.23
2023-02-06T22:06:08.747Z,344.07
2023-02-06T22:08:39.742Z,269.10
2023-02-06T22:11:19.832Z,230.20
2023-02-06T22:13:49.053Z,238.50
2023-02-06T22:16:19.600Z,202.80
2023-02-06T22:18:48.527Z,209.47
2023-02-06T22:21:19.029Z,245.77
2023-02-06T22:23:51.973Z,228.60
2023-02-06T22:26:21.920Z,228.37
2023-02-06T22:28:50.734Z,223.87
2023-02-06T22:31:21.742Z,225.67
2023-02-06T22:33:51.105Z,249.53
2023-02-06T22:36:21.077Z,258.63
2023-02-06T22:38:54.767Z,263.83
2023-02-06T22:41:23.245Z,238.90
2023-02-06T22:43:52.386Z,232.03
2023-02-06T22:46:22.922Z,212.70
2023-02-06T22:48:52.908Z,227.87
2023-02-06T22:51:21.620Z,182.73
2023-02-06T22:53:52.124Z,209.73
2023-02-06T22:56:29.625Z,159.30
2023-02-06T22:59:01.092Z,188.20
2023-02-06T23:01:33.172Z,202.10
2023-02-06T23:04:03.545Z,207.90
2023-02-06T23:06:32.976Z,192.00
2023-02-06T23:09:05.187Z,158.93
2023-02-06T23:11:33.682Z,179.77
2023-02-06T23:14:03.895Z,177.20
2023-02-06T23:16:33.855Z,150.83
2023-02-06T23:19:05.284Z,160.67
2023-02-06T23:21:35.827Z,189.47
2023-02-06T23:24:07.146Z,238.13
2023-02-06T23:26:36.675Z,261.77
2023-02-06T23:29:07.454Z,245.73
2023-02-06T23:31:36.289Z,254.30
2023-02-06T23:34:05.504Z,240.57
2023-02-06T23:36:34.461Z,238.73
2023-02-06T23:39:03.492Z,223.77
2023-02-06T23:41:34.553Z,238.10
2023-02-06T23:44:04.867Z,243.07
2023-02-06T23:46:35.564Z,227.97
2023-02-06T23:49:04.798Z,244.37
2023-02-06T23:51:33.411Z,239.73
2023-02-06T23:54:02.109Z,220.27
2023-02-06T23:56:33.588Z,193.50
2023-02-06T23:59:03.949Z,185.07
